createdAt,value
2018-09-03T00:00:58.065Z,95.30
2018-09-03T00:06:01.587Z,95.70
2018-09-03T00:11:05.265Z,95.80
2018-09-03T00:16:09.334Z,96.00
2018-09-03T00:21:12.935Z,96.20
2018-09-03T00:26:16.518Z,96.30
2018-09-03T00:31:25.354Z,96.30
2018-09-03T00:36:36.289Z,96.50
2018-09-03T00:41:45.066Z,96.80
2018-09-03T00:46:54.117Z,96.90
2018-09-03T00:51:57.761Z,96.90
2018-09-03T00:57:01.350Z,97.00
2018-09-03T01:02:04.960Z,96.60
2018-09-03T01:07:09.535Z,96.70
2018-09-03T01:12:13.213Z,97.00
2018-09-03T01:17:17.511Z,97.40
2018-09-03T01:22:21.134Z,97.50
2018-09-03T01:27:24.857Z,97.50
2018-09-03T01:32:28.435Z,97.50
2018-09-03T01:37:31.998Z,96.90
2018-09-03T01:42:35.647Z,97.30
2018-09-03T01:47:39.506Z,97.50
2018-09-03T01:52:43.067Z,97.60
2018-09-03T01:57:46.705Z,97.70
2018-09-03T02:02:50.335Z,97.80
2018-09-03T02:07:53.903Z,98.00
2018-09-03T02:12:57.534Z,97.40
2018-09-03T02:18:01.222Z,97.10
2018-09-03T02:23:06.880Z,96.00
2018-09-03T02:28:11.563Z,97.30
2018-09-03T02:33:17.345Z,97.70
2018-09-03T02:38:20.958Z,97.90
2018-09-03T02:43:24.505Z,97.70
2018-09-03T02:48:28.052Z,96.80
2018-09-03T02:53:32.733Z,97.60
2018-09-03T02:58:36.394Z,98.00
2018-09-03T03:03:40.046Z,98.20
2018-09-03T03:08:43.883Z,98.40
2018-09-03T03:13:47.695Z,97.80
2018-09-03T03:18:51.337Z,97.60
2018-09-03T03:23:56.990Z,98.00
2018-09-03T03:29:00.506Z,98.60
2018-09-03T03:34:04.061Z,99.00
2018-09-03T03:39:08.169Z,99.00
2018-09-03T03:44:11.784Z,99.30
2018-09-03T03:49:15.438Z,98.90
2018-09-03T03:54:19.193Z,99.20
2018-09-03T03:59:22.778Z,98.40
2018-09-03T04:04:26.371Z,98.00
2018-09-03T04:09:36.477Z,98.30
2018-09-03T04:14:40.022Z,98.10
2018-09-03T04:19:47.970Z,97.80
2018-09-03T04:24:51.622Z,98.20
2018-09-03T04:29:55.291Z,98.60
2018-09-03T04:34:58.858Z,98.70
2018-09-03T04:40:02.539Z,99.30
2018-09-03T04:45:06.174Z,99.10
2018-09-03T04:50:09.773Z,99.30
2018-09-03T04:55:13.381Z,99.20
2018-09-03T05:00:17.212Z,99.40
2018-09-03T05:05:20.860Z,99.50
2018-09-03T05:10:24.422Z,99.50
2018-09-03T05:15:28.027Z,99.40
2018-09-03T05:20:31.761Z,99.20
2018-09-03T05:25:35.379Z,99.20
2018-09-03T05:30:41.043Z,99.60
2018-09-03T05:35:44.621Z,99.20
2018-09-03T05:40:48.187Z,99.70
2018-09-03T05:45:51.778Z,99.80
2018-09-03T05:50:55.400Z,99.90
2018-09-03T05:56:00.106Z,99.80
2018-09-03T06:01:05.942Z,99.70
2018-09-03T06:06:11.550Z,99.90
2018-09-03T06:11:18.526Z,99.90
2018-09-03T06:16:22.742Z,99.90
2018-09-03T06:21:27.479Z,99.90
2018-09-03T06:26:31.098Z,99.90
2018-09-03T06:31:34.674Z,99.90
2018-09-03T06:36:38.246Z,99.80
2018-09-03T06:41:42.454Z,99.80
2018-09-03T06:46:46.095Z,99.90
2018-09-03T06:51:49.673Z,99.70
2018-09-03T06:56:53.353Z,98.90
2018-09-03T07:01:56.957Z,97.10
2018-09-03T07:07:00.554Z,97.50
2018-09-03T07:12:06.262Z,96.50
2018-09-03T07:17:09.942Z,96.20
2018-09-03T07:22:13.557Z,95.80
2018-09-03T07:27:17.101Z,96.10
2018-09-03T07:32:20.747Z,95.70
2018-09-03T07:37:24.393Z,95.60
2018-09-03T07:42:28.082Z,96.10
2018-09-03T07:47:31.653Z,96.00
2018-09-03T07:52:35.244Z,95.30
2018-09-03T07:57:38.850Z,95.40
2018-09-03T08:02:42.390Z,95.10
2018-09-03T08:07:45.923Z,95.30
2018-09-03T08:12:49.434Z,94.90
2018-09-03T08:17:53.068Z,94.30
2018-09-03T08:22:56.838Z,94.90
2018-09-03T08:28:00.474Z,94.10
2018-09-03T08:33:04.107Z,93.90
2018-09-03T08:38:07.854Z,95.20
2018-09-03T08:43:11.402Z,96.10
2018-09-03T08:48:14.995Z,95.40
2018-09-03T08:53:18.638Z,94.50
2018-09-03T08:58:22.266Z,95.40
2018-09-03T09:03:31.098Z,94.70
2018-09-03T09:08:34.703Z,93.50
2018-09-03T09:13:38.286Z,92.80
2018-09-03T09:18:41.922Z,93.00
2018-09-03T09:23:46.687Z,94.30
2018-09-03T09:28:52.354Z,94.60
2018-09-03T09:33:55.882Z,95.20
2018-09-03T09:38:59.518Z,95.00
2018-09-03T09:44:09.135Z,95.30
2018-09-03T09:49:18.014Z,95.70
2018-09-03T09:54:23.695Z,95.60
2018-09-03T09:59:27.197Z,95.10
2018-09-03T10:04:30.765Z,94.80
2018-09-03T10:09:34.291Z,95.10
2018-09-03T10:14:42.374Z,94.80
2018-09-03T10:19:45.974Z,94.60
2018-09-03T10:24:49.750Z,94.00
2018-09-03T10:29:53.419Z,94.10
2018-09-03T10:34:56.965Z,94.00
2018-09-03T10:40:00.497Z,94.30
2018-09-03T10:45:04.178Z,94.00
2018-09-03T10:50:07.726Z,94.10
2018-09-03T10:55:12.610Z,93.90
2018-09-03T11:00:17.226Z,93.70
2018-09-03T11:05:20.875Z,95.10
2018-09-03T11:10:24.448Z,94.10
2018-09-03T11:15:28.034Z,94.20
2018-09-03T11:20:31.670Z,93.80
2018-09-03T11:25:35.535Z,93.20
2018-09-03T11:30:39.207Z,93.60
2018-09-03T11:35:42.738Z,94.10
2018-09-03T11:40:46.280Z,93.90
2018-09-03T11:45:49.895Z,95.60
2018-09-03T11:50:53.747Z,96.40
2018-09-03T11:56:02.431Z,96.80
2018-09-03T12:01:06.289Z,96.30
2018-09-03T12:06:09.930Z,96.40
2018-09-03T12:11:13.558Z,96.30
2018-09-03T12:16:20.600Z,96.50
2018-09-03T12:21:24.196Z,96.70
2018-09-03T12:26:27.869Z,97.00
2018-09-03T12:31:31.465Z,96.50
2018-09-03T12:36:35.064Z,94.20
2018-09-03T12:41:38.774Z,94.30
2018-09-03T12:46:42.414Z,95.10
2018-09-03T12:51:46.110Z,94.70
2018-09-03T12:56:49.723Z,94.10
2018-09-03T13:01:53.406Z,93.80
2018-09-03T13:06:57.053Z,93.90
2018-09-03T13:12:02.895Z,93.90
2018-09-03T13:17:11.428Z,94.00
2018-09-03T13:22:15.126Z,93.60
2018-09-03T13:27:18.802Z,94.60
2018-09-03T13:32:22.408Z,94.50
2018-09-03T13:37:27.143Z,93.50
2018-09-03T13:42:31.000Z,94.70
2018-09-03T13:47:35.523Z,94.70
2018-09-03T13:52:39.267Z,96.50
2018-09-03T13:57:44.012Z,95.10
2018-09-03T14:02:47.724Z,97.60
2018-09-03T14:07:51.366Z,95.30
2018-09-03T14:12:55.022Z,97.40
2018-09-03T14:17:58.645Z,96.50
2018-09-03T14:23:02.290Z,96.70
2018-09-03T14:28:07.183Z,96.70
2018-09-03T14:33:11.888Z,96.50
2018-09-03T14:38:15.444Z,96.70
2018-09-03T14:43:19.034Z,97.00
2018-09-03T14:48:22.613Z,97.20
2018-09-03T14:53:26.364Z,97.80
2018-09-03T14:58:30.771Z,97.50
2018-09-03T15:03:36.586Z,97.40
2018-09-03T15:08:40.186Z,96.80
2018-09-03T15:14:02.820Z,96.90
2018-09-03T15:19:06.849Z,95.90
2018-09-03T15:24:16.140Z,95.90
2018-09-03T15:29:24.307Z,95.60
2018-09-03T15:34:28.060Z,96.00
2018-09-03T15:39:32.797Z,95.70
2018-09-03T15:44:36.508Z,96.30
2018-09-03T15:49:40.304Z,95.80
2018-09-03T15:54:49.920Z,95.10
2018-09-03T15:59:54.656Z,95.20
2018-09-03T16:04:58.264Z,95.30
2018-09-03T16:10:02.057Z,95.30
2018-09-03T16:15:05.849Z,96.30
2018-09-03T16:20:12.768Z,95.70
2018-09-03T16:25:17.431Z,95.20
2018-09-03T16:30:21.140Z,96.20
2018-09-03T16:35:25.593Z,96.10
2018-09-03T16:40:30.925Z,95.40
2018-09-03T16:45:34.996Z,95.50
2018-09-03T16:50:42.803Z,96.20
2018-09-03T16:55:46.405Z,95.80
2018-09-03T17:00:53.583Z,95.80
2018-09-03T17:05:57.175Z,96.50
2018-09-03T17:11:02.115Z,96.40
2018-09-03T17:16:05.695Z,96.00
2018-09-03T17:21:11.431Z,96.10
2018-09-03T17:26:18.384Z,96.50
2018-09-03T17:31:23.144Z,97.00
2018-09-03T17:36:27.029Z,97.00
2018-09-03T17:41:30.743Z,97.20
2018-09-03T17:46:35.335Z,97.30
2018-09-03T17:51:40.214Z,97.80
2018-09-03T17:56:45.961Z,97.20
2018-09-03T18:01:54.683Z,97.30
2018-09-03T18:07:00.878Z,97.60
2018-09-03T18:12:04.617Z,99.60
2018-09-03T18:17:10.280Z,99.90
2018-09-03T18:22:14.075Z,99.90
2018-09-03T18:27:17.722Z,99.90
2018-09-03T18:32:22.440Z,99.90
2018-09-03T18:37:26.160Z,99.90
2018-09-03T18:42:34.320Z,99.90
2018-09-03T18:47:42.628Z,98.40
2018-09-03T18:52:46.331Z,99.90
2018-09-03T18:57:52.165Z,99.90
2018-09-03T19:02:57.937Z,99.20
2018-09-03T19:08:02.166Z,99.90
2018-09-03T19:13:09.141Z,99.90
2018-09-03T19:18:12.771Z,99.90
2018-09-03T19:23:17.573Z,99.90
2018-09-03T19:28:21.336Z,99.90
2018-09-03T19:33:25.337Z,99.90
2018-09-03T19:38:32.609Z,99.90
2018-09-03T19:43:38.430Z,99.30
2018-09-03T19:48:42.342Z,99.90
2018-09-03T19:53:46.725Z,99.90
2018-09-03T19:58:50.587Z,99.90
2018-09-03T20:03:54.383Z,99.90
2018-09-03T20:08:59.542Z,99.90
2018-09-03T20:14:07.395Z,99.90
2018-09-03T20:19:11.149Z,99.90
2018-09-03T20:24:16.027Z,99.90
2018-09-03T20:29:19.749Z,99.90
2018-09-03T20:34:24.519Z,99.90
2018-09-03T20:39:28.209Z,99.90
2018-09-03T20:44:31.818Z,99.90
2018-09-03T20:49:35.466Z,99.90
2018-09-03T20:54:39.338Z,99.90
2018-09-03T20:59:45.038Z,99.90
2018-09-03T21:04:48.602Z,99.90
2018-09-03T21:09:53.842Z,99.90
2018-09-03T21:15:01.106Z,99.90
2018-09-03T21:20:04.999Z,99.90
2018-09-03T21:25:08.585Z,99.90
2018-09-03T21:30:12.253Z,99.90
2018-09-03T21:35:16.125Z,99.90
2018-09-03T21:40:19.690Z,99.90
2018-09-03T21:45:23.298Z,99.90
2018-09-03T21:50:28.002Z,99.90
2018-09-03T21:55:32.406Z,99.90
2018-09-03T22:00:36.104Z,99.90
2018-09-03T22:05:39.670Z,99.90
2018-09-03T22:10:43.233Z,99.90
2018-09-03T22:15:47.822Z,99.90
2018-09-03T22:20:51.412Z,99.90
2018-09-03T22:25:55.004Z,99.90
2018-09-03T22:30:58.681Z,99.90
2018-09-03T22:36:02.595Z,99.90
2018-09-03T22:41:06.203Z,99.90
2018-09-03T22:46:11.894Z,99.90
2018-09-03T22:51:15.442Z,99.90
2018-09-03T22:56:19.130Z,99.90
2018-09-03T23:01:27.357Z,99.90
2018-09-03T23:06:30.926Z,99.90
2018-09-03T23:11:34.506Z,99.90
2018-09-03T23:16:38.394Z,99.90
2018-09-03T23:21:42.990Z,99.90
2018-09-03T23:26:49.936Z,99.90
2018-09-03T23:31:53.579Z,99.90
2018-09-03T23:36:57.216Z,99.90
2018-09-03T23:42:00.806Z,99.90
2018-09-03T23:47:04.903Z,99.90
2018-09-03T23:52:08.458Z,99.90
2018-09-03T23:57:12.070Z,99.90
